Perulpa — 29145QE — position and weather

sailwx.info

Track history (hours):
 
Tides and Currents Weather Stations Pressure Air Temp Water Temp Dewpoint Dewpoint Depression Visibility Wind Speed Wind Dir Waves Ship Positions

Perulpa

Last reported at 2018-Jan-20 08:12 UTC. Time now 2018-Jan-20 11:09 UTC.
Position S 27°38' E 153°23'.

Length 24 m.

Type: Passenger vessel. MMSI: 503701100.

Date/timePositionNaut miles runAvg speedWind from/ knotsBaromVisibWave heightAir tempDewpointWater temp
2018-Jan-20 08:12S 27°38' E 153°23'2 6.1
2018-Jan-20 07:57S 27°38' E 153°22'3 4.5
2018-Jan-20 07:21S 27°37' E 153°19'3 8.6
2018-Jan-20 06:59S 27°38' E 153°22'3 4.2
2018-Jan-20 06:13S 27°37' E 153°19'417.8
2018-Jan-20 06:00S 27°39' E 153°23'2 4.7
2018-Jan-20 05:30S 27°38' E 153°20'2 3.3
2018-Jan-20 04:53S 27°38' E 153°23'1 1.8
2018-Jan-20 04:30S 27°38' E 153°22'3 3.9
2018-Jan-20 03:47S 27°37' E 153°19'413.8
2018-Jan-20 03:29S 27°39' E 153°23'4 5.7
2018-Jan-20 02:48S 27°37' E 153°19'412.3
2018-Jan-20 02:28S 27°39' E 153°23'2 2.8
2018-Jan-20 01:42S 27°38' E 153°21'210.2
2018-Jan-20 01:29S 27°38' E 153°23'4 6.1
2018-Jan-20 00:48S 27°37' E 153°19'412.1
2018-Jan-20 00:27S 27°38' E 153°23'4 6.1
2018-Jan-19 23:47S 27°37' E 153°19'412.7
2018-Jan-19 23:28S 27°38' E 153°23'2 1.8
2018-Jan-19 22:18S 27°39' E 153°21'1 5.1
2018-Jan-19 22:00S 27°38' E 153°22'3 5.4
2018-Jan-19 21:24S 27°37' E 153°19'4 0.3
2018-Jan-19 07:41S 27°38' E 153°24'2 7.5
2018-Jan-19 07:27S 27°38' E 153°22'1 1.9
2018-Jan-19 06:56S 27°38' E 153°20'1 2.9
2018-Jan-19 06:27S 27°38' E 153°22'1 2.1
2018-Jan-19 06:00S 27°39' E 153°21'0 0.1
2018-Jan-19 05:30S 27°39' E 153°21'1 1.7
2018-Jan-19 05:00S 27°38' E 153°22'0 0.7
2018-Jan-19 04:31S 27°38' E 153°22'0 0.4
2018-Jan-19 04:00S 27°38' E 153°21'0 0.7
2018-Jan-19 03:28S 27°39' E 153°21'0 0.3
2018-Jan-19 02:50S 27°39' E 153°21'1 0.9
2018-Jan-19 01:10S 27°38' E 153°22'1 3.6
2018-Jan-19 00:56S 27°38' E 153°21'1 1.8
2018-Jan-19 00:28S 27°38' E 153°21'2 4.1
2018-Jan-18 23:57S 27°39' E 153°23'2 3.5
2018-Jan-18 23:25S 27°39' E 153°21'2 4.5
2018-Jan-18 22:58S 27°39' E 153°23'4 3.4
2018-Jan-18 21:48S 27°37' E 153°19'412.7
2018-Jan-18 21:29S 27°39' E 153°23'4 6.9
2018-Jan-18 20:54S 27°37' E 153°19'4 8.9
2018-Jan-18 20:29S 27°38' E 153°23'1 1.6
2018-Jan-18 19:44S 27°38' E 153°22'2 6.2
2018-Jan-18 19:29S 27°38' E 153°23'4 6.0
2018-Jan-18 18:47S 27°37' E 153°19'413.0
2018-Jan-18 18:27S 27°38' E 153°24'0 0.0
2018-Jan-18 07:44S 27°38' E 153°23'1 5.6
2018-Jan-18 07:28S 27°38' E 153°22'1 2.4
2018-Jan-18 06:58S 27°38' E 153°20'2 3.0
2018-Jan-18 06:28S 27°39' E 153°22'1 2.3
2018-Jan-18 05:56S 27°38' E 153°21'1 2.4
2018-Jan-18 05:28S 27°38' E 153°22'1 2.1
2018-Jan-18 05:00S 27°39' E 153°21'1 2.3
2018-Jan-18 04:30S 27°38' E 153°22'2 3.0
2018-Jan-18 03:59S 27°38' E 153°20'1 1.9
2018-Jan-18 03:27S 27°38' E 153°22'3 6.0
2018-Jan-18 03:00S 27°37' E 153°19'4 2.3
2018-Jan-18 01:15S 27°39' E 153°23'1 4.4
2018-Jan-18 01:00S 27°38' E 153°22'1 1.2
2018-Jan-18 00:00S 27°39' E 153°23'1 7.4
2018-Jan-17 23:52S 27°38' E 153°22'  
2018-Jan-12 09:11S 27°38' E 153°22'1 6.5
2018-Jan-12 09:00S 27°38' E 153°21'0 0.2
2018-Jan-12 08:29S 27°38' E 153°21'1 2.0
2018-Jan-12 07:56S 27°38' E 153°20'1 2.2
2018-Jan-12 07:28S 27°39' E 153°21'0 0.7
2018-Jan-12 07:01S 27°38' E 153°21'1 1.3
2018-Jan-12 06:30S 27°38' E 153°21'1 1.4
2018-Jan-12 06:00S 27°38' E 153°21'0 0.7
2018-Jan-12 05:30S 27°39' E 153°21'1 2.0
2018-Jan-12 04:58S 27°38' E 153°22'3 5.4
2018-Jan-12 04:26S 27°37' E 153°19'4 2.5
2018-Jan-12 02:42S 27°38' E 153°23'1 7.1
2018-Jan-12 02:30S 27°38' E 153°22'1 1.7
2018-Jan-12 01:43S 27°38' E 153°20'1 7.2
2018-Jan-12 01:30S 27°38' E 153°22'3 3.9
2018-Jan-12 00:47S 27°37' E 153°19'3 9.9
2018-Jan-12 00:30S 27°38' E 153°22'3 2.6
2018-Jan-11 23:25S 27°37' E 153°19'3 7.2
2018-Jan-11 22:58S 27°38' E 153°22'3 4.8
2018-Jan-11 22:18S 27°37' E 153°19'411.5
2018-Jan-11 21:56S 27°38' E 153°23'4 5.8
2018-Jan-11 21:12S 27°37' E 153°19'312.5
2018-Jan-11 20:58S 27°38' E 153°22'0 0.0
2018-Jan-11 09:10S 27°38' E 153°22'1 4.5
2018-Jan-11 09:00S 27°38' E 153°22'0 0.4
2018-Jan-11 08:29S 27°38' E 153°21'0 0.3
2018-Jan-11 08:00S 27°38' E 153°21'0 0.9
2018-Jan-11 07:29S 27°39' E 153°21'1 1.4
2018-Jan-11 07:00S 27°38' E 153°22'1 1.5
2018-Jan-11 06:30S 27°39' E 153°21'0 0.7
2018-Jan-11 05:56S 27°38' E 153°20'1 1.0
2018-Jan-11 04:52S 27°38' E 153°22'1 1.5
2018-Jan-11 04:19S 27°39' E 153°21'1 0.3
2018-Jan-11 01:38S 27°38' E 153°22'0 0.9
2018-Jan-11 01:12S 27°38' E 153°22'0 0.6
2018-Jan-11 00:40S 27°38' E 153°21'0 0.8
2018-Jan-11 00:11S 27°38' E 153°22'3 3.5
2018-Jan-10 23:22S 27°37' E 153°19'3 8.4
2018-Jan-10 22:59S 27°38' E 153°22'1 1.7
2018-Jan-10 22:10S 27°39' E 153°21'1 1.1
2018-Jan-10 21:40S 27°38' E 153°21'1 1.2
2018-Jan-10 21:05S 27°39' E 153°21'0 0.0
2018-Jan-10 08:29S 27°38' E 153°21'  
Track history (hours):
 
Tides and Currents Weather Stations Pressure Air Temp Water Temp Dewpoint Dewpoint Depression Visibility Wind Speed Wind Dir Waves Ship Positions

Perulpa

Last reported at 2018-Jan-20 08:12 UTC. Time now 2018-Jan-20 11:09 UTC.
Position S 27°38' E 153°23'.

Length 24 m.

Type: Passenger vessel. MMSI: 503701100.

Date/timePositionNaut miles runAvg speedWind from/ knotsBaromVisibWave heightAir tempDewpointWater temp
2018-Jan-20 08:12S 27°38' E 153°23'2 6.1
2018-Jan-20 07:57S 27°38' E 153°22'3 4.5
2018-Jan-20 07:21S 27°37' E 153°19'3 8.6
2018-Jan-20 06:59S 27°38' E 153°22'3 4.2
2018-Jan-20 06:13S 27°37' E 153°19'417.8
2018-Jan-20 06:00S 27°39' E 153°23'2 4.7
2018-Jan-20 05:30S 27°38' E 153°20'2 3.3
2018-Jan-20 04:53S 27°38' E 153°23'1 1.8
2018-Jan-20 04:30S 27°38' E 153°22'3 3.9
2018-Jan-20 03:47S 27°37' E 153°19'413.8
2018-Jan-20 03:29S 27°39' E 153°23'4 5.7
2018-Jan-20 02:48S 27°37' E 153°19'412.3
2018-Jan-20 02:28S 27°39' E 153°23'2 2.8
2018-Jan-20 01:42S 27°38' E 153°21'210.2
2018-Jan-20 01:29S 27°38' E 153°23'4 6.1
2018-Jan-20 00:48S 27°37' E 153°19'412.1
2018-Jan-20 00:27S 27°38' E 153°23'4 6.1
2018-Jan-19 23:47S 27°37' E 153°19'412.7
2018-Jan-19 23:28S 27°38' E 153°23'2 1.8
2018-Jan-19 22:18S 27°39' E 153°21'1 5.1
2018-Jan-19 22:00S 27°38' E 153°22'3 5.4
2018-Jan-19 21:24S 27°37' E 153°19'4 0.3
2018-Jan-19 07:41S 27°38' E 153°24'2 7.5
2018-Jan-19 07:27S 27°38' E 153°22'1 1.9
2018-Jan-19 06:56S 27°38' E 153°20'1 2.9
2018-Jan-19 06:27S 27°38' E 153°22'1 2.1
2018-Jan-19 06:00S 27°39' E 153°21'0 0.1
2018-Jan-19 05:30S 27°39' E 153°21'1 1.7
2018-Jan-19 05:00S 27°38' E 153°22'0 0.7
2018-Jan-19 04:31S 27°38' E 153°22'0 0.4
2018-Jan-19 04:00S 27°38' E 153°21'0 0.7
2018-Jan-19 03:28S 27°39' E 153°21'0 0.3
2018-Jan-19 02:50S 27°39' E 153°21'1 0.9
2018-Jan-19 01:10S 27°38' E 153°22'1 3.6
2018-Jan-19 00:56S 27°38' E 153°21'1 1.8
2018-Jan-19 00:28S 27°38' E 153°21'2 4.1
2018-Jan-18 23:57S 27°39' E 153°23'2 3.5
2018-Jan-18 23:25S 27°39' E 153°21'2 4.5
2018-Jan-18 22:58S 27°39' E 153°23'4 3.4
2018-Jan-18 21:48S 27°37' E 153°19'412.7
2018-Jan-18 21:29S 27°39' E 153°23'4 6.9
2018-Jan-18 20:54S 27°37' E 153°19'4 8.9
2018-Jan-18 20:29S 27°38' E 153°23'1 1.6
2018-Jan-18 19:44S 27°38' E 153°22'2 6.2
2018-Jan-18 19:29S 27°38' E 153°23'4 6.0
2018-Jan-18 18:47S 27°37' E 153°19'413.0
2018-Jan-18 18:27S 27°38' E 153°24'0 0.0
2018-Jan-18 07:44S 27°38' E 153°23'1 5.6
2018-Jan-18 07:28S 27°38' E 153°22'1 2.4
2018-Jan-18 06:58S 27°38' E 153°20'2 3.0
2018-Jan-18 06:28S 27°39' E 153°22'1 2.3
2018-Jan-18 05:56S 27°38' E 153°21'1 2.4
2018-Jan-18 05:28S 27°38' E 153°22'1 2.1
2018-Jan-18 05:00S 27°39' E 153°21'1 2.3
2018-Jan-18 04:30S 27°38' E 153°22'2 3.0
2018-Jan-18 03:59S 27°38' E 153°20'1 1.9
2018-Jan-18 03:27S 27°38' E 153°22'3 6.0
2018-Jan-18 03:00S 27°37' E 153°19'4 2.3
2018-Jan-18 01:15S 27°39' E 153°23'1 4.4
2018-Jan-18 01:00S 27°38' E 153°22'1 1.2
2018-Jan-18 00:00S 27°39' E 153°23'1 7.4
2018-Jan-17 23:52S 27°38' E 153°22'  
2018-Jan-12 09:11S 27°38' E 153°22'1 6.5
2018-Jan-12 09:00S 27°38' E 153°21'0 0.2
2018-Jan-12 08:29S 27°38' E 153°21'1 2.0
2018-Jan-12 07:56S 27°38' E 153°20'1 2.2
2018-Jan-12 07:28S 27°39' E 153°21'0 0.7
2018-Jan-12 07:01S 27°38' E 153°21'1 1.3
2018-Jan-12 06:30S 27°38' E 153°21'1 1.4
2018-Jan-12 06:00S 27°38' E 153°21'0 0.7
2018-Jan-12 05:30S 27°39' E 153°21'1 2.0
2018-Jan-12 04:58S 27°38' E 153°22'3 5.4
2018-Jan-12 04:26S 27°37' E 153°19'4 2.5
2018-Jan-12 02:42S 27°38' E 153°23'1 7.1
2018-Jan-12 02:30S 27°38' E 153°22'1 1.7
2018-Jan-12 01:43S 27°38' E 153°20'1 7.2
2018-Jan-12 01:30S 27°38' E 153°22'3 3.9
2018-Jan-12 00:47S 27°37' E 153°19'3 9.9
2018-Jan-12 00:30S 27°38' E 153°22'3 2.6
2018-Jan-11 23:25S 27°37' E 153°19'3 7.2
2018-Jan-11 22:58S 27°38' E 153°22'3 4.8
2018-Jan-11 22:18S 27°37' E 153°19'411.5
2018-Jan-11 21:56S 27°38' E 153°23'4 5.8
2018-Jan-11 21:12S 27°37' E 153°19'312.5
2018-Jan-11 20:58S 27°38' E 153°22'0 0.0
2018-Jan-11 09:10S 27°38' E 153°22'1 4.5
2018-Jan-11 09:00S 27°38' E 153°22'0 0.4
2018-Jan-11 08:29S 27°38' E 153°21'0 0.3
2018-Jan-11 08:00S 27°38' E 153°21'0 0.9
2018-Jan-11 07:29S 27°39' E 153°21'1 1.4
2018-Jan-11 07:00S 27°38' E 153°22'1 1.5
2018-Jan-11 06:30S 27°39' E 153°21'0 0.7
2018-Jan-11 05:56S 27°38' E 153°20'1 1.0
2018-Jan-11 04:52S 27°38' E 153°22'1 1.5
2018-Jan-11 04:19S 27°39' E 153°21'1 0.3
2018-Jan-11 01:38S 27°38' E 153°22'0 0.9
2018-Jan-11 01:12S 27°38' E 153°22'0 0.6
2018-Jan-11 00:40S 27°38' E 153°21'0 0.8
2018-Jan-11 00:11S 27°38' E 153°22'3 3.5
2018-Jan-10 23:22S 27°37' E 153°19'3 8.4
2018-Jan-10 22:59S 27°38' E 153°22'1 1.7
2018-Jan-10 22:10S 27°39' E 153°21'1 1.1
2018-Jan-10 21:40S 27°38' E 153°21'1 1.2
2018-Jan-10 21:05S 27°39' E 153°21'0 0.0
2018-Jan-10 08:29S 27°38' E 153°21'  

Dump ship's entire track history